createdAt,value
2023-06-04T00:01:17.298Z,11.84
2023-06-04T00:03:44.838Z,11.83
2023-06-04T00:06:11.610Z,11.78
2023-06-04T00:08:38.287Z,11.75
2023-06-04T00:11:05.436Z,11.71
2023-06-04T00:13:32.205Z,11.67
2023-06-04T00:15:59.002Z,11.64
2023-06-04T00:18:27.035Z,11.64
2023-06-04T00:20:53.684Z,11.56
2023-06-04T00:23:20.675Z,11.54
2023-06-04T00:25:47.342Z,11.53
2023-06-04T00:28:14.145Z,11.45
2023-06-04T00:30:40.860Z,11.41
2023-06-04T00:33:07.539Z,11.35
2023-06-04T00:35:34.328Z,11.26
2023-06-04T00:38:01.316Z,11.20
2023-06-04T00:40:27.923Z,11.15
2023-06-04T00:42:56.690Z,11.14
2023-06-04T00:45:26.731Z,11.10
2023-06-04T00:47:54.281Z,11.09
2023-06-04T00:50:22.259Z,11.04
2023-06-04T00:52:50.759Z,11.05
2023-06-04T00:55:19.747Z,11.07
2023-06-04T00:57:46.681Z,11.08
2023-06-04T01:00:13.949Z,11.06
2023-06-04T01:02:42.466Z,11.05
2023-06-04T01:05:19.100Z,11.05
2023-06-04T01:07:47.902Z,11.02
2023-06-04T01:10:15.960Z,10.99
2023-06-04T01:12:43.737Z,11.03
2023-06-04T01:15:11.900Z,10.97
2023-06-04T01:17:48.217Z,10.91
2023-06-04T01:20:22.385Z,10.90
2023-06-04T01:22:55.521Z,10.90
2023-06-04T01:25:27.555Z,10.82
2023-06-04T01:27:58.165Z,10.77
2023-06-04T01:30:27.946Z,10.67
2023-06-04T01:32:58.466Z,10.61
2023-06-04T01:35:28.987Z,10.62
2023-06-04T01:37:56.957Z,10.51
2023-06-04T01:40:24.928Z,10.43
2023-06-04T01:42:51.746Z,10.38
2023-06-04T01:45:19.052Z,10.40
2023-06-04T01:47:45.828Z,10.31
2023-06-04T01:50:12.605Z,10.22
2023-06-04T01:52:42.384Z,10.24
2023-06-04T01:55:13.235Z,10.24
2023-06-04T01:57:40.780Z,10.13
2023-06-04T02:00:10.377Z,10.03
2023-06-04T02:02:42.629Z,9.84
2023-06-04T02:05:10.806Z,9.75
2023-06-04T02:07:39.828Z,9.77
2023-06-04T02:10:08.388Z,9.81
2023-06-04T02:12:37.549Z,9.69
2023-06-04T02:15:05.096Z,9.60
2023-06-04T02:17:33.520Z,9.48
2023-06-04T02:20:00.456Z,9.50
2023-06-04T02:22:27.246Z,9.32
2023-06-04T02:24:54.189Z,9.27
2023-06-04T02:27:21.192Z,9.32
2023-06-04T02:29:47.927Z,9.32
2023-06-04T02:32:14.784Z,9.35
2023-06-04T02:34:41.370Z,9.14
2023-06-04T02:37:08.505Z,9.03
2023-06-04T02:39:35.112Z,9.12
2023-06-04T02:42:01.719Z,9.01
2023-06-04T02:44:30.906Z,8.98
2023-06-04T02:46:58.115Z,8.89
2023-06-04T02:49:24.729Z,8.88
2023-06-04T02:51:52.155Z,8.86
2023-06-04T02:54:18.750Z,8.80
2023-06-04T02:56:45.556Z,8.82
2023-06-04T02:59:14.537Z,8.80
2023-06-04T03:01:41.911Z,8.78
2023-06-04T03:04:11.410Z,8.80
2023-06-04T03:06:41.843Z,8.87
2023-06-04T03:09:09.269Z,8.84
2023-06-04T03:11:36.049Z,8.81
2023-06-04T03:14:03.044Z,8.67
2023-06-04T03:16:29.831Z,8.64
2023-06-04T03:18:57.786Z,8.57
2023-06-04T03:21:26.059Z,8.52
2023-06-04T03:23:53.552Z,8.46
2023-06-04T03:26:20.432Z,8.48
2023-06-04T03:28:47.707Z,8.42
2023-06-04T03:31:18.269Z,8.41
2023-06-04T03:33:45.462Z,8.44
2023-06-04T03:36:12.367Z,8.36
2023-06-04T03:38:40.024Z,8.34
2023-06-04T03:41:06.870Z,8.38
2023-06-04T03:43:33.892Z,8.40
2023-06-04T03:46:03.850Z,8.36
2023-06-04T03:48:30.761Z,8.37
2023-06-04T03:50:57.588Z,8.41
2023-06-04T03:53:24.627Z,8.42
2023-06-04T03:55:51.314Z,8.45
2023-06-04T03:58:19.085Z,8.47
2023-06-04T04:00:49.023Z,8.49
2023-06-04T04:03:16.517Z,8.49
2023-06-04T04:05:44.925Z,8.48
2023-06-04T04:08:11.583Z,8.52
2023-06-04T04:10:38.236Z,8.57
2023-06-04T04:13:05.545Z,8.61
2023-06-04T04:15:36.133Z,8.60
2023-06-04T04:18:04.355Z,8.65
2023-06-04T04:20:31.379Z,8.72
2023-06-04T04:23:03.459Z,8.80
2023-06-04T04:25:33.584Z,8.81
2023-06-04T04:28:03.289Z,8.88
2023-06-04T04:30:30.622Z,8.98
2023-06-04T04:32:57.610Z,9.11
2023-06-04T04:35:35.591Z,9.22
2023-06-04T04:38:08.213Z,9.37
2023-06-04T04:40:41.489Z,9.44
2023-06-04T04:43:09.959Z,9.55
2023-06-04T04:45:37.343Z,9.63
2023-06-04T04:48:06.503Z,9.71
2023-06-04T04:50:33.344Z,9.82
2023-06-04T04:53:01.256Z,9.93
2023-06-04T04:55:28.062Z,9.97
2023-06-04T04:57:54.990Z,10.05
2023-06-04T05:00:23.723Z,10.19
2023-06-04T05:02:53.891Z,10.32
2023-06-04T05:05:20.569Z,10.49
2023-06-04T05:07:49.312Z,10.68
2023-06-04T05:10:16.921Z,10.78
2023-06-04T05:13:14.156Z,10.97
2023-06-04T05:15:48.958Z,11.23
2023-06-04T05:18:21.496Z,11.40
2023-06-04T05:20:49.184Z,11.66
2023-06-04T05:23:16.183Z,11.95
2023-06-04T05:25:45.214Z,12.25
2023-06-04T05:28:13.952Z,12.51
2023-06-04T05:30:42.568Z,12.85
2023-06-04T05:33:18.916Z,12.95
2023-06-04T05:35:53.163Z,13.20
2023-06-04T05:38:21.603Z,13.52
2023-06-04T05:40:48.718Z,13.67
2023-06-04T05:43:16.293Z,13.75
2023-06-04T05:45:43.134Z,13.87
2023-06-04T05:48:10.004Z,14.27
2023-06-04T05:50:36.610Z,14.31
2023-06-04T05:53:03.579Z,14.69
2023-06-04T05:55:30.422Z,14.91
2023-06-04T05:57:57.552Z,14.53
2023-06-04T06:00:27.713Z,14.71
2023-06-04T06:02:54.910Z,15.15
2023-06-04T06:05:41.106Z,15.21
2023-06-04T06:08:07.956Z,15.11
2023-06-04T06:10:35.173Z,15.06
2023-06-04T06:13:02.110Z,15.24
2023-06-04T06:15:30.045Z,15.49
2023-06-04T06:17:57.324Z,15.35
2023-06-04T06:20:24.929Z,15.40
2023-06-04T06:22:52.403Z,15.61
2023-06-04T06:25:21.323Z,15.94
2023-06-04T06:27:54.819Z,16.00
2023-06-04T06:30:23.674Z,15.45
2023-06-04T06:32:51.546Z,15.61
2023-06-04T06:35:19.713Z,15.88
2023-06-04T06:37:46.591Z,16.06
2023-06-04T06:40:13.431Z,16.21
2023-06-04T06:42:40.054Z,16.71
2023-06-04T06:45:07.419Z,17.09
2023-06-04T06:47:34.390Z,17.49
2023-06-04T06:50:01.026Z,17.83
2023-06-04T06:52:27.740Z,17.82
2023-06-04T06:54:54.337Z,17.79
2023-06-04T06:57:21.569Z,17.57
2023-06-04T06:59:48.258Z,17.91
2023-06-04T07:02:14.860Z,17.59
2023-06-04T07:04:41.760Z,17.32
2023-06-04T07:07:08.538Z,17.81
2023-06-04T07:09:35.291Z,18.48
2023-06-04T07:12:02.009Z,18.53
2023-06-04T07:14:28.916Z,18.42
2023-06-04T07:16:55.687Z,18.65
2023-06-04T07:19:22.371Z,18.84
2023-06-04T07:21:49.074Z,19.19
2023-06-04T07:24:15.659Z,19.28
2023-06-04T07:26:42.493Z,19.63
2023-06-04T07:29:09.261Z,19.76
2023-06-04T07:31:36.080Z,19.78
2023-06-04T07:34:02.778Z,19.73
2023-06-04T07:36:30.238Z,19.44
2023-06-04T07:38:56.825Z,19.75
2023-06-04T07:41:23.739Z,19.52
2023-06-04T07:43:50.569Z,19.69
2023-06-04T07:46:20.044Z,19.90
2023-06-04T07:48:46.799Z,20.19
2023-06-04T07:51:14.551Z,20.61
2023-06-04T07:53:42.066Z,20.41
2023-06-04T07:56:08.719Z,20.70
2023-06-04T07:58:35.549Z,20.90
2023-06-04T08:01:02.446Z,20.63
2023-06-04T08:03:29.261Z,20.63
2023-06-04T08:05:56.152Z,20.60
2023-06-04T08:08:24.490Z,20.66
2023-06-04T08:10:51.143Z,20.48
2023-06-04T08:13:17.862Z,20.75
2023-06-04T08:15:44.807Z,21.27
2023-06-04T08:18:11.599Z,21.64
2023-06-04T08:20:38.240Z,21.62
2023-06-04T08:23:05.000Z,21.88
2023-06-04T08:25:32.616Z,22.02
2023-06-04T08:27:59.229Z,22.29
2023-06-04T08:30:28.657Z,22.46
2023-06-04T08:32:55.368Z,22.06
2023-06-04T08:35:22.209Z,22.40
2023-06-04T08:37:49.164Z,22.32
2023-06-04T08:40:15.803Z,22.20
2023-06-04T08:42:45.680Z,22.15
2023-06-04T08:45:14.380Z,22.18
2023-06-04T08:47:45.760Z,22.25
2023-06-04T08:50:13.405Z,22.41
2023-06-04T08:52:41.838Z,22.65
2023-06-04T08:55:12.167Z,23.01
2023-06-04T08:57:40.777Z,23.38
2023-06-04T09:00:09.204Z,23.06
2023-06-04T09:02:39.641Z,22.92
2023-06-04T09:05:10.485Z,22.59
2023-06-04T09:07:39.621Z,22.96
2023-06-04T09:10:13.437Z,23.01
2023-06-04T09:12:45.558Z,23.15
2023-06-04T09:15:12.495Z,23.12
2023-06-04T09:17:39.618Z,23.35
2023-06-04T09:20:10.031Z,23.29
2023-06-04T09:22:38.519Z,23.31
2023-06-04T09:25:10.501Z,23.67
2023-06-04T09:27:41.273Z,23.69
2023-06-04T09:30:10.360Z,23.23
2023-06-04T09:32:37.585Z,23.63
2023-06-04T09:35:15.892Z,23.77
2023-06-04T09:37:44.188Z,23.75
2023-06-04T09:40:11.512Z,23.42
2023-06-04T09:42:45.105Z,23.41
2023-06-04T09:45:13.045Z,23.20
2023-06-04T09:47:43.765Z,23.77
2023-06-04T09:50:13.211Z,24.11
2023-06-04T09:52:41.077Z,24.02
2023-06-04T09:55:20.867Z,23.71
2023-06-04T09:57:49.590Z,24.02
2023-06-04T10:00:22.199Z,24.20
2023-06-04T10:02:50.565Z,24.40
2023-06-04T10:05:17.748Z,24.29
2023-06-04T10:07:46.313Z,24.34
2023-06-04T10:10:17.715Z,24.31
2023-06-04T10:12:46.426Z,24.54
2023-06-04T10:15:14.630Z,24.28
2023-06-04T10:17:42.262Z,23.83
2023-06-04T10:20:10.021Z,23.80
2023-06-04T10:22:37.777Z,23.94
2023-06-04T10:25:05.745Z,24.29
2023-06-04T10:27:33.256Z,24.30
2023-06-04T10:30:00.726Z,24.40
2023-06-04T10:32:31.470Z,24.45
2023-06-04T10:35:01.904Z,24.26
2023-06-04T10:37:30.801Z,24.71
2023-06-04T10:39:58.482Z,24.58
2023-06-04T10:42:26.442Z,24.69
2023-06-04T10:44:58.139Z,24.81
2023-06-04T10:47:34.942Z,24.84
2023-06-04T10:50:14.976Z,24.86
2023-06-04T10:52:55.471Z,24.88
2023-06-04T10:55:22.578Z,24.79
2023-06-04T10:58:15.490Z,25.21
2023-06-04T11:00:47.375Z,25.66
2023-06-04T11:03:14.658Z,25.84
2023-06-04T11:05:48.767Z,25.56
2023-06-04T11:08:16.024Z,25.55
2023-06-04T11:10:44.430Z,25.69
2023-06-04T11:13:11.446Z,25.85
2023-06-04T11:15:43.174Z,25.99
2023-06-04T11:18:15.401Z,25.91
2023-06-04T11:20:43.638Z,26.18
2023-06-04T11:23:13.996Z,26.07
2023-06-04T11:25:41.808Z,25.54
2023-06-04T11:28:08.666Z,25.87
2023-06-04T11:30:35.539Z,26.25
2023-06-04T11:33:04.567Z,25.82
2023-06-04T11:35:32.281Z,25.93
2023-06-04T11:37:59.831Z,25.14
2023-06-04T11:40:27.983Z,25.36
2023-06-04T11:42:56.042Z,25.44
2023-06-04T11:45:23.902Z,25.74
2023-06-04T11:47:56.493Z,26.35
2023-06-04T11:50:25.132Z,25.92
2023-06-04T11:52:53.890Z,25.66
2023-06-04T11:55:24.487Z,25.57
2023-06-04T11:57:51.990Z,25.74
2023-06-04T12:00:20.508Z,25.61
2023-06-04T12:02:54.656Z,25.79
2023-06-04T12:05:26.514Z,26.16
2023-06-04T12:07:53.518Z,25.59
2023-06-04T12:10:21.891Z,25.86
2023-06-04T12:12:56.063Z,25.90
2023-06-04T12:15:23.756Z,26.77
2023-06-04T12:17:55.710Z,26.52
2023-06-04T12:20:33.664Z,26.68
2023-06-04T12:23:00.402Z,26.08
2023-06-04T12:25:29.393Z,26.71
2023-06-04T12:27:56.359Z,26.19
2023-06-04T12:30:23.600Z,26.27
2023-06-04T12:32:51.892Z,26.42
2023-06-04T12:35:21.213Z,26.04
2023-06-04T12:37:47.797Z,26.52
2023-06-04T12:40:14.653Z,26.27
2023-06-04T12:42:41.350Z,26.48
2023-06-04T12:45:09.840Z,26.78
2023-06-04T12:47:36.550Z,27.29
2023-06-04T12:50:04.052Z,26.96
2023-06-04T12:52:30.892Z,26.17
2023-06-04T12:54:57.462Z,26.13
2023-06-04T12:57:24.653Z,26.20
2023-06-04T12:59:51.362Z,25.91
2023-06-04T13:02:18.238Z,26.86
2023-06-04T13:04:47.167Z,27.66
2023-06-04T13:07:13.783Z,28.53
2023-06-04T13:09:40.800Z,29.13
2023-06-04T13:12:10.526Z,29.85
2023-06-04T13:14:37.361Z,29.11
2023-06-04T13:17:14.017Z,29.26
2023-06-04T13:19:47.837Z,29.11
2023-06-04T13:22:14.633Z,28.79
2023-06-04T13:24:41.535Z,29.45
2023-06-04T13:27:08.240Z,29.84
2023-06-04T13:29:35.850Z,28.71
2023-06-04T13:32:02.897Z,28.03
2023-06-04T13:34:29.534Z,27.44
2023-06-04T13:36:56.625Z,27.73
2023-06-04T13:39:23.723Z,27.43
2023-06-04T13:41:50.577Z,27.19
2023-06-04T13:44:17.179Z,27.26
2023-06-04T13:46:43.864Z,27.81
2023-06-04T13:49:10.680Z,27.96
2023-06-04T13:51:37.464Z,27.93
2023-06-04T13:54:04.131Z,28.31
2023-06-04T13:56:31.125Z,29.01
2023-06-04T13:58:57.828Z,28.48
2023-06-04T14:01:24.742Z,27.62
2023-06-04T14:03:52.245Z,27.62
2023-06-04T14:06:18.944Z,26.68
2023-06-04T14:08:45.793Z,25.23
2023-06-04T14:11:12.434Z,26.02
2023-06-04T14:13:39.875Z,26.16
2023-06-04T14:16:06.975Z,25.68
2023-06-04T14:18:33.634Z,26.10
2023-06-04T14:21:00.767Z,26.18
2023-06-04T14:23:27.451Z,25.95
2023-06-04T14:25:54.248Z,25.82
2023-06-04T14:28:21.902Z,25.47
2023-06-04T14:30:48.939Z,24.96
2023-06-04T14:33:15.600Z,25.17
2023-06-04T14:35:47.628Z,25.25
2023-06-04T14:38:15.737Z,25.02
2023-06-04T14:40:44.389Z,24.93
2023-06-04T14:43:12.650Z,25.15
2023-06-04T14:45:40.728Z,25.32
2023-06-04T14:48:15.560Z,25.92
2023-06-04T14:50:44.083Z,25.94
2023-06-04T14:53:11.341Z,25.46
2023-06-04T14:55:38.141Z,25.30
2023-06-04T14:58:05.557Z,24.73
2023-06-04T15:00:33.304Z,24.56
2023-06-04T15:03:03.900Z,24.43
2023-06-04T15:05:32.821Z,24.40
2023-06-04T15:07:59.815Z,24.75
2023-06-04T15:10:27.274Z,24.49
2023-06-04T15:12:54.348Z,24.27
2023-06-04T15:15:21.235Z,24.00
2023-06-04T15:17:49.731Z,24.00
2023-06-04T15:20:16.941Z,24.05
2023-06-04T15:22:43.841Z,24.14
2023-06-04T15:25:11.438Z,24.22
2023-06-04T15:27:39.560Z,24.29
2023-06-04T15:30:07.113Z,23.82
2023-06-04T15:32:35.194Z,23.36
2023-06-04T15:35:03.113Z,23.30
2023-06-04T15:37:29.701Z,23.28
2023-06-04T15:39:58.792Z,23.40
2023-06-04T15:42:25.581Z,23.46
2023-06-04T15:44:52.446Z,23.11
2023-06-04T15:47:19.224Z,22.97
2023-06-04T15:49:45.953Z,23.04
2023-06-04T15:52:12.677Z,22.86
2023-06-04T15:54:46.670Z,22.41
2023-06-04T15:57:14.368Z,22.53
2023-06-04T15:59:42.104Z,22.67
2023-06-04T16:02:09.236Z,22.64
2023-06-04T16:04:36.160Z,22.45
2023-06-04T16:07:03.583Z,22.54
2023-06-04T16:09:30.411Z,22.15
2023-06-04T16:11:57.492Z,22.29
2023-06-04T16:14:24.097Z,22.09
2023-06-04T16:16:51.154Z,22.11
2023-06-04T16:19:18.178Z,22.08
2023-06-04T16:21:44.788Z,21.90
2023-06-04T16:24:11.591Z,21.76
2023-06-04T16:26:38.230Z,21.68
2023-06-04T16:29:05.262Z,21.61
2023-06-04T16:31:32.127Z,21.50
2023-06-04T16:33:58.852Z,21.53
2023-06-04T16:36:26.228Z,21.56
2023-06-04T16:38:52.998Z,21.67
2023-06-04T16:41:19.626Z,21.63
2023-06-04T16:43:46.551Z,21.61
2023-06-04T16:46:13.256Z,21.82
2023-06-04T16:48:40.240Z,21.64
2023-06-04T16:51:07.085Z,21.51
2023-06-04T16:53:33.736Z,21.48
2023-06-04T16:56:00.657Z,21.30
2023-06-04T16:58:27.334Z,21.36
2023-06-04T17:00:54.336Z,21.24
2023-06-04T17:03:22.590Z,21.03
2023-06-04T17:05:49.668Z,21.11
2023-06-04T17:08:16.483Z,21.13
2023-06-04T17:10:43.191Z,21.17
2023-06-04T17:13:09.852Z,21.07
2023-06-04T17:15:36.446Z,20.96
2023-06-04T17:18:04.159Z,20.82
2023-06-04T17:20:32.821Z,20.64
2023-06-04T17:23:01.264Z,20.51
2023-06-04T17:25:29.166Z,20.49
2023-06-04T17:27:59.348Z,20.25
2023-06-04T17:30:25.976Z,20.25
2023-06-04T17:32:52.864Z,20.04
2023-06-04T17:35:19.724Z,19.99
2023-06-04T17:37:46.347Z,19.71
2023-06-04T17:40:13.148Z,19.63
2023-06-04T17:42:41.814Z,19.53
2023-06-04T17:45:11.156Z,19.34
2023-06-04T17:47:37.935Z,19.21
2023-06-04T17:50:07.953Z,19.14
2023-06-04T17:52:36.042Z,19.06
2023-06-04T17:55:02.889Z,18.94
2023-06-04T17:57:31.259Z,18.85
2023-06-04T17:59:58.584Z,18.81
2023-06-04T18:02:26.158Z,18.70
2023-06-04T18:04:53.083Z,18.73
2023-06-04T18:07:21.264Z,18.72
2023-06-04T18:09:48.318Z,18.59
2023-06-04T18:12:15.666Z,18.51
2023-06-04T18:14:45.608Z,18.51
2023-06-04T18:17:12.598Z,18.48
2023-06-04T18:19:39.414Z,18.43
2023-06-04T18:22:07.306Z,18.28
2023-06-04T18:24:35.333Z,18.22
2023-06-04T18:27:01.928Z,18.18
2023-06-04T18:29:29.713Z,18.18
2023-06-04T18:31:56.392Z,18.16
2023-06-04T18:34:23.122Z,18.14
2023-06-04T18:36:54.124Z,18.06
2023-06-04T18:39:27.627Z,18.03
2023-06-04T18:41:55.405Z,17.96
2023-06-04T18:44:23.054Z,17.77
2023-06-04T18:46:49.949Z,17.63
2023-06-04T18:49:16.776Z,17.60
2023-06-04T18:51:43.644Z,17.52
2023-06-04T18:54:10.446Z,17.49
2023-06-04T18:56:37.142Z,17.44
2023-06-04T18:59:03.853Z,17.34
2023-06-04T19:01:30.465Z,17.21
2023-06-04T19:03:57.068Z,17.18
2023-06-04T19:06:24.069Z,17.15
2023-06-04T19:08:50.935Z,17.16
2023-06-04T19:11:17.619Z,17.09
2023-06-04T19:13:44.491Z,17.10
2023-06-04T19:16:13.967Z,17.06
2023-06-04T19:18:40.917Z,17.05
2023-06-04T19:21:07.541Z,17.06
2023-06-04T19:23:35.265Z,17.08
2023-06-04T19:26:02.651Z,17.07
2023-06-04T19:28:29.877Z,17.07
2023-06-04T19:30:56.723Z,17.09
2023-06-04T19:33:23.543Z,17.05
2023-06-04T19:35:50.543Z,17.01
2023-06-04T19:38:17.313Z,17.01
2023-06-04T19:40:44.196Z,16.96
2023-06-04T19:43:11.142Z,16.96
2023-06-04T19:45:38.369Z,16.88
2023-06-04T19:48:05.332Z,16.84
2023-06-04T19:50:32.222Z,16.80
2023-06-04T19:52:58.994Z,16.78
2023-06-04T19:55:25.734Z,16.75
2023-06-04T19:57:53.624Z,16.66
2023-06-04T20:00:20.463Z,16.61
2023-06-04T20:02:47.155Z,16.57
2023-06-04T20:05:18.357Z,16.50
2023-06-04T20:07:45.587Z,16.41
2023-06-04T20:10:12.298Z,16.41
2023-06-04T20:12:38.939Z,16.29
2023-06-04T20:15:06.474Z,16.23
2023-06-04T20:17:33.315Z,16.18
2023-06-04T20:20:00.543Z,16.09
2023-06-04T20:22:27.188Z,16.00
2023-06-04T20:24:53.792Z,15.90
2023-06-04T20:27:20.728Z,15.78
2023-06-04T20:29:47.385Z,15.68
2023-06-04T20:32:14.202Z,15.66
2023-06-04T20:34:41.272Z,15.66
2023-06-04T20:37:08.053Z,15.69
2023-06-04T20:39:38.448Z,15.67
2023-06-04T20:42:06.049Z,15.63
2023-06-04T20:44:33.406Z,15.62
2023-06-04T20:47:00.254Z,15.57
2023-06-04T20:49:27.273Z,15.59
2023-06-04T20:51:54.200Z,15.56
2023-06-04T20:54:20.983Z,15.55
2023-06-04T20:56:47.882Z,15.52
2023-06-04T20:59:15.570Z,15.51
2023-06-04T21:01:42.424Z,15.54
2023-06-04T21:04:09.358Z,15.44
2023-06-04T21:06:36.137Z,15.41
2023-06-04T21:09:02.908Z,15.37
2023-06-04T21:11:29.584Z,15.35
2023-06-04T21:13:57.530Z,15.33
2023-06-04T21:16:24.771Z,15.27
2023-06-04T21:18:54.296Z,15.19
2023-06-04T21:21:21.202Z,15.17
2023-06-04T21:23:47.961Z,15.18
2023-06-04T21:26:14.585Z,15.21
2023-06-04T21:28:41.404Z,15.19
2023-06-04T21:31:08.429Z,15.24
2023-06-04T21:33:35.308Z,15.23
2023-06-04T21:36:02.191Z,15.22
2023-06-04T21:38:28.793Z,15.16
2023-06-04T21:40:55.750Z,15.09
2023-06-04T21:43:23.136Z,14.98
2023-06-04T21:45:50.544Z,14.91
2023-06-04T21:48:17.185Z,14.92
2023-06-04T21:50:44.038Z,14.94
2023-06-04T21:53:10.709Z,14.84
2023-06-04T21:55:37.475Z,14.76
2023-06-04T21:58:04.979Z,14.76
2023-06-04T22:00:31.650Z,14.80
2023-06-04T22:02:59.068Z,14.85
2023-06-04T22:05:25.905Z,14.77
2023-06-04T22:07:52.557Z,14.77
2023-06-04T22:10:19.518Z,14.77
2023-06-04T22:12:46.129Z,14.77
2023-06-04T22:15:12.900Z,14.80
2023-06-04T22:17:39.618Z,14.80
2023-06-04T22:20:07.328Z,14.82
2023-06-04T22:22:34.139Z,14.85
2023-06-04T22:25:00.838Z,14.87
2023-06-04T22:27:27.500Z,14.84
2023-06-04T22:29:54.571Z,14.75
2023-06-04T22:32:21.271Z,14.75
2023-06-04T22:34:48.199Z,14.75
2023-06-04T22:37:15.601Z,14.76
2023-06-04T22:39:42.492Z,14.73
2023-06-04T22:42:09.313Z,14.67
2023-06-04T22:44:35.931Z,14.65
2023-06-04T22:47:02.865Z,14.67
2023-06-04T22:49:30.051Z,14.70
2023-06-04T22:51:56.785Z,14.76
2023-06-04T22:54:23.720Z,14.80
2023-06-04T22:56:50.291Z,14.81
2023-06-04T22:59:17.350Z,14.89
2023-06-04T23:01:43.973Z,14.86
2023-06-04T23:04:13.364Z,14.86
2023-06-04T23:06:40.159Z,14.91
2023-06-04T23:09:06.952Z,14.92
2023-06-04T23:11:33.839Z,14.92
2023-06-04T23:14:00.610Z,14.94
2023-06-04T23:16:27.259Z,14.85
2023-06-04T23:18:54.099Z,14.87
2023-06-04T23:21:21.168Z,14.82
2023-06-04T23:23:47.898Z,14.81
2023-06-04T23:26:14.857Z,14.83
2023-06-04T23:28:41.561Z,14.77
2023-06-04T23:31:08.305Z,14.79
2023-06-04T23:33:35.671Z,14.76
2023-06-04T23:36:02.349Z,14.77
2023-06-04T23:38:29.047Z,14.77
2023-06-04T23:40:55.966Z,14.79
2023-06-04T23:43:22.676Z,14.81
2023-06-04T23:45:49.392Z,14.87
2023-06-04T23:48:17.519Z,14.89
2023-06-04T23:50:44.521Z,14.91
2023-06-04T23:53:11.223Z,14.95
2023-06-04T23:55:40.690Z,14.95
2023-06-04T23:58:07.319Z,14.97
